sensor_id;sensor_type;location;lat;lon;timestamp;pressure;altitude;pressure_sealevel;temperature;humidity
63552;BME280;49698;48.072;7.800;2022-12-18T00:02:10;100479.19;;;-6.06;95.61
63552;BME280;49698;48.072;7.800;2022-12-18T00:04:38;100474.75;;;-6.06;95.42
63552;BME280;49698;48.072;7.800;2022-12-18T00:07:06;100481.63;;;-6.05;96.11
63552;BME280;49698;48.072;7.800;2022-12-18T00:09:34;100479.72;;;-6.03;96.21
63552;BME280;49698;48.072;7.800;2022-12-18T00:12:03;100488.22;;;-6.01;95.54
63552;BME280;49698;48.072;7.800;2022-12-18T00:14:31;100497.59;;;-5.98;95.28
63552;BME280;49698;48.072;7.800;2022-12-18T00:17:00;100515.09;;;-5.99;95.24
63552;BME280;49698;48.072;7.800;2022-12-18T00:19:29;100504.63;;;-5.99;95.71
63552;BME280;49698;48.072;7.800;2022-12-18T00:21:57;100495.94;;;-5.99;95.73
63552;BME280;49698;48.072;7.800;2022-12-18T00:24:34;100501.19;;;-5.99;95.96
63552;BME280;49698;48.072;7.800;2022-12-18T00:27:02;100510.50;;;-5.97;95.49
63552;BME280;49698;48.072;7.800;2022-12-18T00:29:30;100508.06;;;-5.98;95.37
63552;BME280;49698;48.072;7.800;2022-12-18T00:31:58;100506.16;;;-6.06;95.05
63552;BME280;49698;48.072;7.800;2022-12-18T00:34:27;100503.19;;;-6.11;95.21
63552;BME280;49698;48.072;7.800;2022-12-18T00:36:55;100511.78;;;-6.19;95.14
63552;BME280;49698;48.072;7.800;2022-12-18T00:39:23;100512.06;;;-6.22;96.17
63552;BME280;49698;48.072;7.800;2022-12-18T00:41:51;100519.38;;;-6.25;96.00
63552;BME280;49698;48.072;7.800;2022-12-18T00:44:37;100522.81;;;-6.25;96.20
63552;BME280;49698;48.072;7.800;2022-12-18T00:47:06;100514.97;;;-6.25;96.15
63552;BME280;49698;48.072;7.800;2022-12-18T00:49:35;100517.56;;;-6.25;96.27
63552;BME280;49698;48.072;7.800;2022-12-18T00:52:03;100513.84;;;-6.22;96.34
63552;BME280;49698;48.072;7.800;2022-12-18T00:54:31;100511.91;;;-6.20;96.33
63552;BME280;49698;48.072;7.800;2022-12-18T00:57:00;100513.97;;;-6.24;96.11
63552;BME280;49698;48.072;7.800;2022-12-18T00:59:29;100521.16;;;-6.26;96.11
63552;BME280;49698;48.072;7.800;2022-12-18T01:01:57;100515.41;;;-6.29;95.57
63552;BME280;49698;48.072;7.800;2022-12-18T01:04:25;100519.81;;;-6.30;96.17
63552;BME280;49698;48.072;7.800;2022-12-18T01:06:55;100512.94;;;-6.31;95.43
63552;BME280;49698;48.072;7.800;2022-12-18T01:09:23;100508.00;;;-6.34;95.73
63552;BME280;49698;48.072;7.800;2022-12-18T01:11:51;100513.22;;;-6.34;95.39
63552;BME280;49698;48.072;7.800;2022-12-18T01:14:19;100512.53;;;-6.36;95.32
63552;BME280;49698;48.072;7.800;2022-12-18T01:16:47;100515.75;;;-6.42;96.00
63552;BME280;49698;48.072;7.800;2022-12-18T01:19:15;100528.16;;;-6.44;95.82
63552;BME280;49698;48.072;7.800;2022-12-18T01:21:43;100529.94;;;-6.45;95.66
63552;BME280;49698;48.072;7.800;2022-12-18T01:24:12;100535.31;;;-6.46;96.30
63552;BME280;49698;48.072;7.800;2022-12-18T01:26:41;100544.13;;;-6.47;95.57
63552;BME280;49698;48.072;7.800;2022-12-18T01:29:09;100540.69;;;-6.48;95.62
63552;BME280;49698;48.072;7.800;2022-12-18T01:31:37;100538.22;;;-6.49;96.14
63552;BME280;49698;48.072;7.800;2022-12-18T01:34:05;100532.47;;;-6.53;95.88
63552;BME280;49698;48.072;7.800;2022-12-18T01:36:35;100530.81;;;-6.54;95.74
63552;BME280;49698;48.072;7.800;2022-12-18T01:39:06;100537.53;;;-6.51;96.24
63552;BME280;49698;48.072;7.800;2022-12-18T01:41:36;100534.53;;;-6.56;95.79
63552;BME280;49698;48.072;7.800;2022-12-18T01:47:36;100532.47;;;-6.62;96.20
63552;BME280;49698;48.072;7.800;2022-12-18T01:50:09;100535.94;;;-6.62;96.21
63552;BME280;49698;48.072;7.800;2022-12-18T01:52:38;100537.88;;;-6.64;95.77
63552;BME280;49698;48.072;7.800;2022-12-18T01:55:09;100542.00;;;-6.61;96.42
63552;BME280;49698;48.072;7.800;2022-12-18T01:57:39;100545.44;;;-6.61;96.45
63552;BME280;49698;48.072;7.800;2022-12-18T02:00:10;100550.22;;;-6.56;95.76
63552;BME280;49698;48.072;7.800;2022-12-18T02:02:39;100562.06;;;-6.52;96.29
63552;BME280;49698;48.072;7.800;2022-12-18T02:05:08;100551.59;;;-6.52;95.55
63552;BME280;49698;48.072;7.800;2022-12-18T02:07:42;100551.59;;;-6.52;96.27
63552;BME280;49698;48.072;7.800;2022-12-18T02:10:18;100542.75;;;-6.51;96.09
63552;BME280;49698;48.072;7.800;2022-12-18T02:12:55;100548.28;;;-6.54;95.76
63552;BME280;49698;48.072;7.800;2022-12-18T02:15:33;100559.06;;;-6.57;95.72
63552;BME280;49698;48.072;7.800;2022-12-18T02:18:07;100559.31;;;-6.60;95.84
63552;BME280;49698;48.072;7.800;2022-12-18T02:20:44;100564.28;;;-6.67;95.94
63552;BME280;49698;48.072;7.800;2022-12-18T02:23:23;100572.03;;;-6.66;96.14
63552;BME280;49698;48.072;7.800;2022-12-18T02:26:04;100572.97;;;-6.67;96.06
63552;BME280;49698;48.072;7.800;2022-12-18T02:28:36;100558.25;;;-6.68;96.10
63552;BME280;49698;48.072;7.800;2022-12-18T02:31:08;100558.94;;;-6.66;96.31
63552;BME280;49698;48.072;7.800;2022-12-18T02:33:40;100554.91;;;-6.60;96.29
63552;BME280;49698;48.072;7.800;2022-12-18T02:36:09;100547.63;;;-6.56;95.29
63552;BME280;49698;48.072;7.800;2022-12-18T02:38:39;100543.19;;;-6.56;95.16
63552;BME280;49698;48.072;7.800;2022-12-18T02:41:13;100548.97;;;-6.52;95.28
63552;BME280;49698;48.072;7.800;2022-12-18T02:43:46;100551.31;;;-6.49;95.37
63552;BME280;49698;48.072;7.800;2022-12-18T02:46:31;100556.25;;;-6.46;95.89
63552;BME280;49698;48.072;7.800;2022-12-18T02:49:12;100551.03;;;-6.46;95.22
63552;BME280;49698;48.072;7.800;2022-12-18T02:51:50;100552.38;;;-6.42;95.92
63552;BME280;49698;48.072;7.800;2022-12-18T02:54:26;100562.41;;;-6.37;95.14
63552;BME280;49698;48.072;7.800;2022-12-18T02:57:06;100551.66;;;-6.34;95.52
63552;BME280;49698;48.072;7.800;2022-12-18T02:59:41;100537.72;;;-6.35;94.90
63552;BME280;49698;48.072;7.800;2022-12-18T03:02:20;100544.09;;;-6.37;95.04
63552;BME280;49698;48.072;7.800;2022-12-18T03:04:54;100541.22;;;-6.44;95.55
63552;BME280;49698;48.072;7.800;2022-12-18T03:07:32;100542.75;;;-6.42;96.08
63552;BME280;49698;48.072;7.800;2022-12-18T03:10:06;100544.53;;;-6.42;95.30
63552;BME280;49698;48.072;7.800;2022-12-18T03:12:40;100555.56;;;-6.48;94.84
63552;BME280;49698;48.072;7.800;2022-12-18T03:15:14;100541.94;;;-6.52;95.55
63552;BME280;49698;48.072;7.800;2022-12-18T03:17:51;100551.19;;;-6.57;94.91
63552;BME280;49698;48.072;7.800;2022-12-18T03:20:26;100557.38;;;-6.58;95.31
63552;BME280;49698;48.072;7.800;2022-12-18T03:23:02;100556.81;;;-6.52;95.27
63552;BME280;49698;48.072;7.800;2022-12-18T03:25:33;100547.72;;;-6.48;95.76
63552;BME280;49698;48.072;7.800;2022-12-18T03:28:05;100544.81;;;-6.45;94.93
63552;BME280;49698;48.072;7.800;2022-12-18T03:30:40;100552.13;;;-6.49;95.52
63552;BME280;49698;48.072;7.800;2022-12-18T03:33:12;100556.53;;;-6.49;95.14
63552;BME280;49698;48.072;7.800;2022-12-18T03:35:46;100549.25;;;-6.55;94.71
63552;BME280;49698;48.072;7.800;2022-12-18T03:38:14;100551.63;;;-6.62;95.44
63552;BME280;49698;48.072;7.800;2022-12-18T03:40:53;100548.47;;;-6.66;94.95
63552;BME280;49698;48.072;7.800;2022-12-18T03:43:34;100544.19;;;-6.67;95.26
63552;BME280;49698;48.072;7.800;2022-12-18T03:46:07;100550.25;;;-6.66;95.07
63552;BME280;49698;48.072;7.800;2022-12-18T03:48:41;100545.03;;;-6.66;94.83
63552;BME280;49698;48.072;7.800;2022-12-18T03:51:23;100553.28;;;-6.71;94.82
63552;BME280;49698;48.072;7.800;2022-12-18T03:53:55;100551.94;;;-6.75;95.66
63552;BME280;49698;48.072;7.800;2022-12-18T03:56:31;100559.78;;;-6.75;95.27
63552;BME280;49698;48.072;7.800;2022-12-18T03:59:03;100552.63;;;-6.73;95.00
63552;BME280;49698;48.072;7.800;2022-12-18T04:01:34;100556.31;;;-6.66;95.05
63552;BME280;49698;48.072;7.800;2022-12-18T04:04:04;100560.44;;;-6.63;95.31
63552;BME280;49698;48.072;7.800;2022-12-18T04:06:37;100556.56;;;-6.59;95.23
63552;BME280;49698;48.072;7.800;2022-12-18T04:09:06;100554.63;;;-6.57;94.91
63552;BME280;49698;48.072;7.800;2022-12-18T04:11:39;100557.09;;;-6.55;95.49
63552;BME280;49698;48.072;7.800;2022-12-18T04:14:09;100555.19;;;-6.53;94.93
63552;BME280;49698;48.072;7.800;2022-12-18T04:16:40;100554.03;;;-6.51;95.26
63552;BME280;49698;48.072;7.800;2022-12-18T04:19:11;100558.19;;;-6.48;94.77
63552;BME280;49698;48.072;7.800;2022-12-18T04:21:41;100545.78;;;-6.46;94.94
63552;BME280;49698;48.072;7.800;2022-12-18T04:24:11;100550.03;;;-6.45;94.74
63552;BME280;49698;48.072;7.800;2022-12-18T04:26:45;100548.41;;;-6.46;94.65
63552;BME280;49698;48.072;7.800;2022-12-18T04:29:22;100544.72;;;-6.53;94.92
63552;BME280;49698;48.072;7.800;2022-12-18T04:31:50;100544.31;;;-6.58;95.15
63552;BME280;49698;48.072;7.800;2022-12-18T04:34:19;100542.66;;;-6.59;95.78
63552;BME280;49698;48.072;7.800;2022-12-18T04:36:50;100543.34;;;-6.57;95.05
63552;BME280;49698;48.072;7.800;2022-12-18T04:39:20;100539.75;;;-6.56;94.84
63552;BME280;49698;48.072;7.800;2022-12-18T04:41:50;100545.00;;;-6.56;94.89
63552;BME280;49698;48.072;7.800;2022-12-18T04:44:18;100553.00;;;-6.58;95.69
63552;BME280;49698;48.072;7.800;2022-12-18T04:46:47;100550.50;;;-6.59;95.42
63552;BME280;49698;48.072;7.800;2022-12-18T04:49:15;100549.16;;;-6.63;94.70
63552;BME280;49698;48.072;7.800;2022-12-18T04:51:43;100547.13;;;-6.70;95.05
63552;BME280;49698;48.072;7.800;2022-12-18T04:54:11;100555.53;;;-6.76;95.08
63552;BME280;49698;48.072;7.800;2022-12-18T04:56:39;100555.13;;;-6.81;95.04
63552;BME280;49698;48.072;7.800;2022-12-18T04:59:07;100547.56;;;-6.84;94.72
63552;BME280;49698;48.072;7.800;2022-12-18T05:01:35;100546.75;;;-6.84;94.86
63552;BME280;49698;48.072;7.800;2022-12-18T05:04:05;100537.38;;;-6.87;95.15
63552;BME280;49698;48.072;7.800;2022-12-18T05:06:33;100538.22;;;-6.86;95.72
63552;BME280;49698;48.072;7.800;2022-12-18T05:09:01;100531.34;;;-6.87;95.11
63552;BME280;49698;48.072;7.800;2022-12-18T05:11:29;100533.38;;;-6.81;95.62
63552;BME280;49698;48.072;7.800;2022-12-18T05:13:56;100541.75;;;-6.78;94.79
63552;BME280;49698;48.072;7.800;2022-12-18T05:16:24;100536.84;;;-6.81;94.43
63552;BME280;49698;48.072;7.800;2022-12-18T05:18:52;100532.00;;;-6.85;94.36
63552;BME280;49698;48.072;7.800;2022-12-18T05:21:21;100532.31;;;-6.88;95.44
63552;BME280;49698;48.072;7.800;2022-12-18T05:23:49;100534.94;;;-6.88;95.39
63552;BME280;49698;48.072;7.800;2022-12-18T05:26:18;100538.09;;;-6.85;95.28
63552;BME280;49698;48.072;7.800;2022-12-18T05:28:46;100540.56;;;-6.83;95.18
63552;BME280;49698;48.072;7.800;2022-12-18T05:31:14;100536.84;;;-6.81;95.33
63552;BME280;49698;48.072;7.800;2022-12-18T05:33:42;100534.88;;;-6.79;94.41
63552;BME280;49698;48.072;7.800;2022-12-18T05:36:10;100526.91;;;-6.77;94.79
63552;BME280;49698;48.072;7.800;2022-12-18T05:38:40;100534.75;;;-6.77;94.25
63552;BME280;49698;48.072;7.800;2022-12-18T05:41:09;100531.19;;;-6.76;95.00
63552;BME280;49698;48.072;7.800;2022-12-18T05:43:38;100531.19;;;-6.76;94.33
63552;BME280;49698;48.072;7.800;2022-12-18T05:46:09;100532.66;;;-6.74;94.99
63552;BME280;49698;48.072;7.800;2022-12-18T05:48:39;100531.56;;;-6.71;94.66
63552;BME280;49698;48.072;7.800;2022-12-18T05:51:09;100529.75;;;-6.71;94.14
63552;BME280;49698;48.072;7.800;2022-12-18T05:53:37;100539.56;;;-6.73;94.80
63552;BME280;49698;48.072;7.800;2022-12-18T05:56:08;100543.13;;;-6.74;94.43
63552;BME280;49698;48.072;7.800;2022-12-18T05:58:37;100545.06;;;-6.76;94.36
63552;BME280;49698;48.072;7.800;2022-12-18T06:01:08;100554.69;;;-6.76;94.69
63552;BME280;49698;48.072;7.800;2022-12-18T06:03:36;100551.28;;;-6.77;94.73
63552;BME280;49698;48.072;7.800;2022-12-18T06:06:12;100554.81;;;-6.78;94.04
63552;BME280;49698;48.072;7.800;2022-12-18T06:08:40;100551.53;;;-6.80;94.83
63552;BME280;49698;48.072;7.800;2022-12-18T06:11:15;100552.66;;;-6.82;94.01
63552;BME280;49698;48.072;7.800;2022-12-18T06:13:44;100563.25;;;-6.84;94.08
63552;BME280;49698;48.072;7.800;2022-12-18T06:16:12;100572.06;;;-6.85;94.73
63552;BME280;49698;48.072;7.800;2022-12-18T06:18:40;100563.53;;;-6.87;94.33
63552;BME280;49698;48.072;7.800;2022-12-18T06:21:08;100572.34;;;-6.88;94.79
63552;BME280;49698;48.072;7.800;2022-12-18T06:23:36;100578.25;;;-6.86;94.36
63552;BME280;49698;48.072;7.800;2022-12-18T06:26:05;100586.09;;;-6.86;94.45
63552;BME280;49698;48.072;7.800;2022-12-18T06:28:35;100595.19;;;-6.90;93.98
63552;BME280;49698;48.072;7.800;2022-12-18T06:31:03;100596.56;;;-6.96;94.31
63552;BME280;49698;48.072;7.800;2022-12-18T06:33:32;100594.38;;;-7.00;94.77
63552;BME280;49698;48.072;7.800;2022-12-18T06:36:01;100604.56;;;-7.07;94.08
63552;BME280;49698;48.072;7.800;2022-12-18T06:38:31;100594.25;;;-7.08;94.32
63552;BME280;49698;48.072;7.800;2022-12-18T06:40:59;100596.88;;;-7.08;94.50
63552;BME280;49698;48.072;7.800;2022-12-18T06:43:27;100604.00;;;-7.10;94.27
63552;BME280;49698;48.072;7.800;2022-12-18T06:46:01;100610.06;;;-7.10;94.70
63552;BME280;49698;48.072;7.800;2022-12-18T06:48:30;100608.69;;;-7.14;94.39
63552;BME280;49698;48.072;7.800;2022-12-18T06:50:58;100618.31;;;-7.15;94.53
63552;BME280;49698;48.072;7.800;2022-12-18T06:53:27;100610.09;;;-7.20;93.80
63552;BME280;49698;48.072;7.800;2022-12-18T06:56:00;100605.13;;;-7.23;93.93
63552;BME280;49698;48.072;7.800;2022-12-18T06:58:30;100612.00;;;-7.22;93.64
63552;BME280;49698;48.072;7.800;2022-12-18T07:01:04;100620.53;;;-7.20;94.39
63552;BME280;49698;48.072;7.800;2022-12-18T07:03:33;100613.50;;;-7.19;93.97
63552;BME280;49698;48.072;7.800;2022-12-18T07:06:01;100612.69;;;-7.20;93.74
63552;BME280;49698;48.072;7.800;2022-12-18T07:08:29;100615.31;;;-7.20;94.31
63552;BME280;49698;48.072;7.800;2022-12-18T07:10:57;100615.56;;;-7.23;93.67
63552;BME280;49698;48.072;7.800;2022-12-18T07:13:25;100622.44;;;-7.22;93.18
63552;BME280;49698;48.072;7.800;2022-12-18T07:15:53;100609.38;;;-7.22;93.83
63552;BME280;49698;48.072;7.800;2022-12-18T07:18:22;100621.63;;;-7.22;93.51
63552;BME280;49698;48.072;7.800;2022-12-18T07:20:50;100617.22;;;-7.22;94.05
63552;BME280;49698;48.072;7.800;2022-12-18T07:23:18;100620.91;;;-7.24;93.33
63552;BME280;49698;48.072;7.800;2022-12-18T07:25:46;100625.31;;;-7.25;92.99
63552;BME280;49698;48.072;7.800;2022-12-18T07:28:14;100640.06;;;-7.24;93.42
63552;BME280;49698;48.072;7.800;2022-12-18T07:30:43;100639.22;;;-7.24;93.21
63552;BME280;49698;48.072;7.800;2022-12-18T07:33:10;100642.66;;;-7.24;93.91
63552;BME280;49698;48.072;7.800;2022-12-18T07:35:40;100648.56;;;-7.22;93.28
63552;BME280;49698;48.072;7.800;2022-12-18T07:38:09;100654.34;;;-7.18;92.84
63552;BME280;49698;48.072;7.800;2022-12-18T07:40:36;100661.22;;;-7.17;93.24
63552;BME280;49698;48.072;7.800;2022-12-18T07:43:04;100662.75;;;-7.15;93.14
63552;BME280;49698;48.072;7.800;2022-12-18T07:45:32;100656.28;;;-7.10;92.91
63552;BME280;49698;48.072;7.800;2022-12-18T07:48:00;100662.31;;;-7.10;93.22
63552;BME280;49698;48.072;7.800;2022-12-18T07:50:28;100659.84;;;-7.11;93.13
63552;BME280;49698;48.072;7.800;2022-12-18T07:52:57;100671.94;;;-7.10;93.13
63552;BME280;49698;48.072;7.800;2022-12-18T07:55:30;100679.09;;;-7.13;93.40
63552;BME280;49698;48.072;7.800;2022-12-18T07:58:08;100677.19;;;-7.10;93.35
63552;BME280;49698;48.072;7.800;2022-12-18T08:00:36;100682.25;;;-7.09;92.45
63552;BME280;49698;48.072;7.800;2022-12-18T08:03:04;100691.47;;;-7.15;92.81
63552;BME280;49698;48.072;7.800;2022-12-18T08:05:32;100700.81;;;-7.22;92.34
63552;BME280;49698;48.072;7.800;2022-12-18T08:08:01;100689.25;;;-7.29;92.97
63552;BME280;49698;48.072;7.800;2022-12-18T08:10:29;100685.69;;;-7.28;92.61
63552;BME280;49698;48.072;7.800;2022-12-18T08:12:57;100686.94;;;-7.13;92.42
63552;BME280;49698;48.072;7.800;2022-12-18T08:15:28;100677.44;;;-6.94;92.44
63552;BME280;49698;48.072;7.800;2022-12-18T08:17:56;100681.03;;;-6.76;91.85
63552;BME280;49698;48.072;7.800;2022-12-18T08:20:24;100686.50;;;-6.50;90.33
63552;BME280;49698;48.072;7.800;2022-12-18T08:22:52;100692.22;;;-6.36;89.29
63552;BME280;49698;48.072;7.800;2022-12-18T08:25:22;100692.06;;;-6.25;88.59
63552;BME280;49698;48.072;7.800;2022-12-18T08:27:50;100681.03;;;-6.19;88.60
63552;BME280;49698;48.072;7.800;2022-12-18T08:30:18;100671.13;;;-6.16;87.88
63552;BME280;49698;48.072;7.800;2022-12-18T08:32:46;100663.56;;;-6.19;87.48
63552;BME280;49698;48.072;7.800;2022-12-18T08:35:16;100661.66;;;-6.26;87.63
63552;BME280;49698;48.072;7.800;2022-12-18T08:37:44;100654.22;;;-6.31;88.41
63552;BME280;49698;48.072;7.800;2022-12-18T08:40:12;100648.47;;;-6.34;88.34
63552;BME280;49698;48.072;7.800;2022-12-18T08:42:41;100648.19;;;-6.41;87.38
63552;BME280;49698;48.072;7.800;2022-12-18T08:45:27;100644.50;;;-6.48;87.93
63552;BME280;49698;48.072;7.800;2022-12-18T08:47:55;100641.88;;;-6.48;87.26
63552;BME280;49698;48.072;7.800;2022-12-18T08:50:23;100643.78;;;-6.41;87.01
63552;BME280;49698;48.072;7.800;2022-12-18T08:52:51;100641.16;;;-6.31;87.12
63552;BME280;49698;48.072;7.800;2022-12-18T08:55:19;100634.94;;;-6.30;86.60
63552;BME280;49698;48.072;7.800;2022-12-18T08:57:49;100628.88;;;-6.30;86.73
63552;BME280;49698;48.072;7.800;2022-12-18T09:00:18;100634.06;;;-6.21;85.80
63552;BME280;49698;48.072;7.800;2022-12-18T09:02:46;100639.28;;;-6.11;85.76
63552;BME280;49698;48.072;7.800;2022-12-18T09:05:14;100639.75;;;-5.98;85.56
63552;BME280;49698;48.072;7.800;2022-12-18T09:07:42;100635.13;;;-5.86;85.04
63552;BME280;49698;48.072;7.800;2022-12-18T09:10:10;100630.25;;;-5.81;84.54
63552;BME280;49698;48.072;7.800;2022-12-18T09:12:38;100622.56;;;-5.82;83.83
63552;BME280;49698;48.072;7.800;2022-12-18T09:15:08;100619.78;;;-5.81;84.37
63552;BME280;49698;48.072;7.800;2022-12-18T09:17:36;100630.66;;;-5.76;83.48
63552;BME280;49698;48.072;7.800;2022-12-18T09:20:05;100626.88;;;-5.63;83.66
63552;BME280;49698;48.072;7.800;2022-12-18T09:22:33;100634.50;;;-5.52;82.97
63552;BME280;49698;48.072;7.800;2022-12-18T09:25:02;100628.38;;;-5.43;82.62
63552;BME280;49698;48.072;7.800;2022-12-18T09:27:30;100640.44;;;-5.32;82.13
63552;BME280;49698;48.072;7.800;2022-12-18T09:29:58;100639.00;;;-5.27;82.12
63552;BME280;49698;48.072;7.800;2022-12-18T09:32:27;100636.78;;;-5.22;81.68
63552;BME280;49698;48.072;7.800;2022-12-18T09:34:55;100638.78;;;-5.16;81.56
63552;BME280;49698;48.072;7.800;2022-12-18T09:37:23;100645.00;;;-5.17;81.31
63552;BME280;49698;48.072;7.800;2022-12-18T09:39:50;100650.75;;;-5.31;81.52
63552;BME280;49698;48.072;7.800;2022-12-18T09:42:20;100648.59;;;-5.35;81.64
63552;BME280;49698;48.072;7.800;2022-12-18T09:44:50;100656.75;;;-5.38;81.69
63552;BME280;49698;48.072;7.800;2022-12-18T09:47:23;100663.25;;;-5.43;81.93
63552;BME280;49698;48.072;7.800;2022-12-18T09:49:56;100666.25;;;-5.55;82.50
63552;BME280;49698;48.072;7.800;2022-12-18T09:52:29;100654.69;;;-5.62;82.25
63552;BME280;49698;48.072;7.800;2022-12-18T09:55:01;100658.88;;;-5.70;82.20
63552;BME280;49698;48.072;7.800;2022-12-18T09:57:31;100661.69;;;-5.81;82.60
63552;BME280;49698;48.072;7.800;2022-12-18T10:00:15;100659.75;;;-5.79;82.73
63552;BME280;49698;48.072;7.800;2022-12-18T10:02:45;100655.31;;;-5.69;83.20
63552;BME280;49698;48.072;7.800;2022-12-18T10:05:17;100654.38;;;-5.50;81.82
63552;BME280;49698;48.072;7.800;2022-12-18T10:07:54;100660.94;;;-5.46;81.57
63552;BME280;49698;48.072;7.800;2022-12-18T10:10:36;100646.63;;;-5.51;82.41
63552;BME280;49698;48.072;7.800;2022-12-18T10:13:15;100645.22;;;-5.46;82.51
63552;BME280;49698;48.072;7.800;2022-12-18T10:15:53;100643.56;;;-5.47;82.43
63552;BME280;49698;48.072;7.800;2022-12-18T10:18:32;100639.59;;;-5.51;82.27
63552;BME280;49698;48.072;7.800;2022-12-18T10:21:08;100630.91;;;-5.51;82.74
63552;BME280;49698;48.072;7.800;2022-12-18T10:23:42;100629.28;;;-5.52;82.64
63552;BME280;49698;48.072;7.800;2022-12-18T10:26:13;100622.94;;;-5.50;82.46
63552;BME280;49698;48.072;7.800;2022-12-18T10:28:41;100617.06;;;-5.44;82.48
63552;BME280;49698;48.072;7.800;2022-12-18T10:31:14;100622.03;;;-5.41;82.84
63552;BME280;49698;48.072;7.800;2022-12-18T10:33:44;100621.25;;;-5.15;82.65
63552;BME280;49698;48.072;7.800;2022-12-18T10:36:13;100621.13;;;-4.70;81.07
63552;BME280;49698;48.072;7.800;2022-12-18T10:38:41;100595.59;;;-4.33;79.86
63552;BME280;49698;48.072;7.800;2022-12-18T10:41:24;100602.72;;;-4.18;78.97
63552;BME280;49698;48.072;7.800;2022-12-18T10:44:12;100599.91;;;-3.82;78.64
63552;BME280;49698;48.072;7.800;2022-12-18T10:46:40;100601.31;;;-3.29;77.72
63552;BME280;49698;48.072;7.800;2022-12-18T10:49:19;100601.75;;;-2.60;74.97
63552;BME280;49698;48.072;7.800;2022-12-18T10:51:51;100601.28;;;-2.08;73.61
63552;BME280;49698;48.072;7.800;2022-12-18T10:54:21;100597.19;;;-1.79;72.67
63552;BME280;49698;48.072;7.800;2022-12-18T10:56:50;100595.69;;;-1.74;72.53
63552;BME280;49698;48.072;7.800;2022-12-18T10:59:18;100589.72;;;-1.99;72.74
63552;BME280;49698;48.072;7.800;2022-12-18T11:01:48;100582.09;;;-2.33;74.11
63552;BME280;49698;48.072;7.800;2022-12-18T11:04:20;100573.31;;;-2.64;74.48
63552;BME280;49698;48.072;7.800;2022-12-18T11:06:55;100572.38;;;-2.96;76.15
63552;BME280;49698;48.072;7.800;2022-12-18T11:09:25;100567.78;;;-3.10;76.53
63552;BME280;49698;48.072;7.800;2022-12-18T11:11:55;100570.25;;;-3.17;76.56
63552;BME280;49698;48.072;7.800;2022-12-18T11:14:25;100569.25;;;-3.16;77.11
63552;BME280;49698;48.072;7.800;2022-12-18T11:16:54;100567.44;;;-3.07;76.29
63552;BME280;49698;48.072;7.800;2022-12-18T11:19:36;100576.31;;;-2.92;76.41
63552;BME280;49698;48.072;7.800;2022-12-18T11:22:19;100570.88;;;-2.74;75.65
63552;BME280;49698;48.072;7.800;2022-12-18T11:24:55;100577.22;;;-2.52;75.23
63552;BME280;49698;48.072;7.800;2022-12-18T11:27:55;100570.25;;;-2.37;74.64
63552;BME280;49698;48.072;7.800;2022-12-18T11:30:38;100575.03;;;-2.40;74.16
63552;BME280;49698;48.072;7.800;2022-12-18T11:33:09;100569.00;;;-2.57;75.42
63552;BME280;49698;48.072;7.800;2022-12-18T11:35:42;100588.78;;;-2.61;75.68
63552;BME280;49698;48.072;7.800;2022-12-18T11:38:18;100586.78;;;-2.51;75.06
63552;BME280;49698;48.072;7.800;2022-12-18T11:40:52;100597.59;;;-2.38;75.53
63552;BME280;49698;48.072;7.800;2022-12-18T11:43:27;100603.13;;;-2.25;74.41
63552;BME280;49698;48.072;7.800;2022-12-18T11:45:59;100582.66;;;-2.06;74.30
63552;BME280;49698;48.072;7.800;2022-12-18T11:48:32;100566.94;;;-1.91;73.52
63552;BME280;49698;48.072;7.800;2022-12-18T11:51:04;100566.75;;;-1.90;73.70
63552;BME280;49698;48.072;7.800;2022-12-18T11:53:38;100561.50;;;-1.90;74.02
63552;BME280;49698;48.072;7.800;2022-12-18T11:56:21;100551.28;;;-1.85;73.68
63552;BME280;49698;48.072;7.800;2022-12-18T11:59:01;100554.31;;;-1.96;73.82
63552;BME280;49698;48.072;7.800;2022-12-18T12:01:42;100559.28;;;-2.01;74.45
63552;BME280;49698;48.072;7.800;2022-12-18T12:04:43;100554.25;;;-1.88;74.19
63552;BME280;49698;48.072;7.800;2022-12-18T12:07:26;100551.91;;;-1.83;73.77
63552;BME280;49698;48.072;7.800;2022-12-18T12:10:12;100548.94;;;-1.80;73.67
63552;BME280;49698;48.072;7.800;2022-12-18T12:12:58;100542.56;;;-1.85;74.16
63552;BME280;49698;48.072;7.800;2022-12-18T12:15:36;100533.84;;;-1.94;74.41
63552;BME280;49698;48.072;7.800;2022-12-18T12:18:17;100531.16;;;-2.09;74.84
63552;BME280;49698;48.072;7.800;2022-12-18T12:20:53;100544.72;;;-2.20;75.16
63552;BME280;49698;48.072;7.800;2022-12-18T12:23:33;100534.06;;;-2.35;75.80
63552;BME280;49698;48.072;7.800;2022-12-18T12:26:10;100534.69;;;-2.33;76.28
63552;BME280;49698;48.072;7.800;2022-12-18T12:28:54;100525.81;;;-2.32;76.36
63552;BME280;49698;48.072;7.800;2022-12-18T12:31:33;100538.34;;;-2.34;76.42
63552;BME280;49698;48.072;7.800;2022-12-18T12:34:13;100530.47;;;-2.42;76.50
63552;BME280;49698;48.072;7.800;2022-12-18T12:37:02;100537.41;;;-2.49;77.63
63552;BME280;49698;48.072;7.800;2022-12-18T12:39:35;100529.00;;;-2.44;77.28
63552;BME280;49698;48.072;7.800;2022-12-18T12:42:11;100543.81;;;-2.43;77.58
63552;BME280;49698;48.072;7.800;2022-12-18T12:45:03;100547.75;;;-2.39;77.94
63552;BME280;49698;48.072;7.800;2022-12-18T12:47:35;100547.56;;;-2.38;77.83
63552;BME280;49698;48.072;7.800;2022-12-18T12:50:13;100550.00;;;-2.36;78.05
63552;BME280;49698;48.072;7.800;2022-12-18T12:52:44;100547.22;;;-2.35;78.10
63552;BME280;49698;48.072;7.800;2022-12-18T12:55:16;100540.47;;;-2.37;78.06
63552;BME280;49698;48.072;7.800;2022-12-18T12:57:54;100539.38;;;-2.43;78.25
63552;BME280;49698;48.072;7.800;2022-12-18T13:00:25;100530.16;;;-2.47;78.18
63552;BME280;49698;48.072;7.800;2022-12-18T13:03:01;100529.34;;;-2.48;78.46
63552;BME280;49698;48.072;7.800;2022-12-18T13:05:38;100516.34;;;-2.49;78.72
63552;BME280;49698;48.072;7.800;2022-12-18T13:08:10;100518.34;;;-2.51;78.79
63552;BME280;49698;48.072;7.800;2022-12-18T13:10:39;100511.41;;;-2.52;79.37
63552;BME280;49698;48.072;7.800;2022-12-18T13:13:10;100517.00;;;-2.47;79.79
63552;BME280;49698;48.072;7.800;2022-12-18T13:15:40;100510.75;;;-2.46;80.17
63552;BME280;49698;48.072;7.800;2022-12-18T13:18:18;100504.47;;;-2.45;80.23